createdAt,value
2023-01-21T00:01:28.028Z,76.63
2023-01-21T00:03:54.476Z,87.15
2023-01-21T00:06:20.814Z,94.45
2023-01-21T00:08:47.181Z,86.78
2023-01-21T00:11:14.983Z,83.38
2023-01-21T00:13:42.060Z,88.38
2023-01-21T00:16:08.799Z,86.30
2023-01-21T00:18:35.433Z,85.38
2023-01-21T00:21:01.855Z,97.78
2023-01-21T00:23:28.434Z,80.65
2023-01-21T00:26:01.947Z,88.03
2023-01-21T00:28:31.861Z,89.32
2023-01-21T00:30:59.373Z,89.53
2023-01-21T00:33:26.197Z,81.32
2023-01-21T00:35:58.385Z,84.03
2023-01-21T00:38:24.787Z,69.28
2023-01-21T00:40:51.196Z,69.13
2023-01-21T00:43:17.605Z,75.75
2023-01-21T00:45:44.021Z,71.57
2023-01-21T00:48:10.446Z,65.15
2023-01-21T00:50:36.821Z,73.35
2023-01-21T00:53:03.155Z,71.85
2023-01-21T00:55:29.531Z,72.63
2023-01-21T00:57:56.211Z,72.53
2023-01-21T01:00:25.901Z,61.72
2023-01-21T01:02:52.314Z,68.43
2023-01-21T01:05:19.970Z,73.72
2023-01-21T01:07:47.698Z,66.88
2023-01-21T01:10:14.143Z,77.55
2023-01-21T01:12:40.634Z,67.70
2023-01-21T01:15:07.337Z,67.93
2023-01-21T01:17:35.590Z,61.83
2023-01-21T01:20:02.144Z,65.35
2023-01-21T01:22:28.855Z,76.72
2023-01-21T01:24:55.297Z,67.50
2023-01-21T01:27:21.627Z,72.88
2023-01-21T01:29:48.556Z,74.55
2023-01-21T01:32:15.032Z,68.40
2023-01-21T01:34:41.488Z,75.25
2023-01-21T01:37:10.182Z,74.88
2023-01-21T01:39:36.590Z,72.97
2023-01-21T01:42:03.770Z,72.18
2023-01-21T01:44:48.799Z,73.28
2023-01-21T01:47:15.576Z,72.20
2023-01-21T01:49:42.631Z,67.90
2023-01-21T01:52:10.186Z,74.95
2023-01-21T01:54:39.089Z,85.60
2023-01-21T01:57:06.875Z,77.10
2023-01-21T01:59:33.674Z,62.35
2023-01-21T02:02:03.084Z,68.28
2023-01-21T02:04:31.800Z,70.65
2023-01-21T02:06:58.220Z,66.57
2023-01-21T02:09:29.689Z,73.25
2023-01-21T02:12:00.113Z,75.38
2023-01-21T02:14:26.536Z,82.60
2023-01-21T02:16:53.052Z,84.93
2023-01-21T02:19:28.622Z,79.68
2023-01-21T02:22:04.200Z,78.10
2023-01-21T02:25:08.954Z,78.60
2023-01-21T02:27:44.480Z,73.88
2023-01-21T02:30:29.502Z,70.93
2023-01-21T02:33:05.016Z,68.00
2023-01-21T02:35:34.406Z,60.92
2023-01-21T02:38:00.871Z,55.33
2023-01-21T02:40:27.233Z,57.38
2023-01-21T02:42:56.649Z,58.83
2023-01-21T02:45:41.321Z,70.38
2023-01-21T02:48:07.704Z,58.95
2023-01-21T02:50:40.969Z,48.08
2023-01-21T02:53:07.310Z,58.92
2023-01-21T02:55:38.216Z,61.60
2023-01-21T02:58:09.787Z,57.08
2023-01-21T03:00:50.942Z,59.45
2023-01-21T03:03:23.442Z,59.85
2023-01-21T03:05:55.874Z,59.33
2023-01-21T03:08:23.262Z,67.00
2023-01-21T03:11:01.704Z,66.00
2023-01-21T03:13:49.848Z,69.93
2023-01-21T03:16:37.100Z,67.13
2023-01-21T03:19:05.884Z,66.88
2023-01-21T03:21:33.125Z,63.35
2023-01-21T03:23:59.910Z,68.20
2023-01-21T03:26:35.842Z,71.82
2023-01-21T03:29:04.961Z,60.15
2023-01-21T03:31:33.293Z,68.40
2023-01-21T03:34:01.334Z,68.90
2023-01-21T03:36:46.448Z,56.28
2023-01-21T03:39:24.094Z,61.72
2023-01-21T03:41:50.596Z,58.13
2023-01-21T03:44:16.970Z,58.55
2023-01-21T03:47:01.609Z,56.75
2023-01-21T03:49:30.914Z,61.75
2023-01-21T03:51:59.087Z,69.32
2023-01-21T03:54:25.510Z,71.57
2023-01-21T03:56:51.931Z,69.95
2023-01-21T03:59:18.360Z,71.20
2023-01-21T04:01:44.751Z,77.80
2023-01-21T04:04:14.146Z,81.47
2023-01-21T04:06:40.462Z,87.85
2023-01-21T04:09:07.422Z,93.78
2023-01-21T04:11:34.248Z,84.60
2023-01-21T04:14:00.888Z,68.93
2023-01-21T04:16:27.364Z,68.15
2023-01-21T04:18:54.097Z,57.25
2023-01-21T04:21:20.465Z,63.85
2023-01-21T04:23:47.051Z,56.40
2023-01-21T04:26:13.515Z,52.72
2023-01-21T04:28:39.878Z,52.00
2023-01-21T04:31:06.306Z,61.92
2023-01-21T04:33:32.732Z,48.05
2023-01-21T04:35:59.948Z,50.67
2023-01-21T04:38:26.794Z,61.17
2023-01-21T04:40:53.408Z,60.80
2023-01-21T04:43:20.143Z,55.58
2023-01-21T04:45:46.740Z,59.38
2023-01-21T04:48:13.360Z,56.72
2023-01-21T04:50:39.816Z,50.00
2023-01-21T04:53:06.187Z,62.80
2023-01-21T04:55:32.538Z,64.72
2023-01-21T04:57:58.931Z,59.13
2023-01-21T05:00:25.413Z,67.93
2023-01-21T05:02:51.798Z,53.08
2023-01-21T05:05:18.153Z,52.83
2023-01-21T05:07:44.556Z,57.05
2023-01-21T05:10:15.335Z,57.90
2023-01-21T05:12:41.886Z,54.13
2023-01-21T05:15:08.934Z,54.22
2023-01-21T05:17:35.276Z,56.60
2023-01-21T05:20:01.726Z,56.25
2023-01-21T05:22:28.083Z,52.85
2023-01-21T05:24:54.533Z,52.03
2023-01-21T05:27:21.768Z,60.63
2023-01-21T05:29:48.429Z,51.83
2023-01-21T05:32:14.924Z,51.50
2023-01-21T05:34:41.250Z,50.40
2023-01-21T05:37:07.583Z,49.25
2023-01-21T05:39:33.984Z,52.38
2023-01-21T05:42:00.403Z,47.35
2023-01-21T05:44:26.853Z,46.78
2023-01-21T05:46:53.255Z,58.63
2023-01-21T05:49:19.904Z,57.55
2023-01-21T05:51:48.876Z,61.42
2023-01-21T05:54:15.279Z,57.67
2023-01-21T05:56:41.844Z,50.35
2023-01-21T05:59:09.096Z,62.20
2023-01-21T06:01:36.238Z,54.58
2023-01-21T06:04:02.955Z,47.95
2023-01-21T06:06:29.355Z,50.85
2023-01-21T06:08:55.717Z,46.50
2023-01-21T06:11:23.362Z,42.17
2023-01-21T06:13:49.776Z,38.75
2023-01-21T06:16:16.614Z,41.90
2023-01-21T06:18:43.107Z,31.63
2023-01-21T06:21:09.529Z,30.48
2023-01-21T06:23:35.939Z,30.88
2023-01-21T06:26:02.777Z,30.67
2023-01-21T06:28:29.680Z,31.92
2023-01-21T06:30:57.424Z,31.55
2023-01-21T06:33:23.872Z,34.15
2023-01-21T06:35:50.327Z,33.20
2023-01-21T06:38:16.764Z,36.15
2023-01-21T06:40:43.381Z,37.15
2023-01-21T06:43:09.881Z,31.38
2023-01-21T06:45:36.200Z,37.88
2023-01-21T06:48:03.352Z,35.92
2023-01-21T06:50:29.721Z,38.33
2023-01-21T06:52:56.076Z,33.28
2023-01-21T06:55:22.519Z,43.65
2023-01-21T06:57:48.922Z,36.28
2023-01-21T07:00:15.863Z,39.65
2023-01-21T07:02:42.433Z,39.80
2023-01-21T07:05:09.028Z,41.08
2023-01-21T07:07:37.960Z,35.45
2023-01-21T07:10:04.572Z,41.08
2023-01-21T07:12:31.743Z,38.05
2023-01-21T07:14:58.129Z,43.28
2023-01-21T07:17:24.533Z,40.00
2023-01-21T07:19:50.953Z,36.30
2023-01-21T07:22:17.366Z,48.22
2023-01-21T07:24:43.856Z,43.10
2023-01-21T07:27:10.715Z,44.17
2023-01-21T07:29:37.157Z,39.47
2023-01-21T07:32:03.772Z,51.63
2023-01-21T07:34:30.255Z,45.13
2023-01-21T07:36:56.594Z,44.90
2023-01-21T07:39:22.950Z,47.55
2023-01-21T07:41:49.372Z,41.80
2023-01-21T07:44:15.753Z,46.53
2023-01-21T07:46:42.117Z,50.33
2023-01-21T07:49:08.926Z,42.47
2023-01-21T07:51:35.358Z,51.95
2023-01-21T07:54:01.734Z,45.03
2023-01-21T07:56:28.204Z,43.28
2023-01-21T07:58:55.020Z,43.53
2023-01-21T08:01:23.257Z,47.63
2023-01-21T08:03:51.521Z,42.10
2023-01-21T08:06:17.919Z,48.20
2023-01-21T08:08:44.332Z,43.53
2023-01-21T08:11:10.686Z,44.30
2023-01-21T08:13:37.155Z,43.15
2023-01-21T08:16:04.672Z,50.40
2023-01-21T08:18:31.081Z,45.83
2023-01-21T08:20:58.155Z,53.53
2023-01-21T08:23:25.479Z,45.65
2023-01-21T08:25:52.149Z,43.58
2023-01-21T08:28:18.779Z,55.55
2023-01-21T08:30:45.214Z,47.88
2023-01-21T08:33:12.593Z,44.00
2023-01-21T08:35:39.108Z,44.08
2023-01-21T08:38:05.519Z,44.53
2023-01-21T08:40:31.867Z,53.90
2023-01-21T08:43:02.559Z,43.53
2023-01-21T08:45:29.302Z,44.85
2023-01-21T08:47:56.076Z,40.10
2023-01-21T08:50:22.900Z,47.78
2023-01-21T08:52:53.058Z,44.08
2023-01-21T08:55:19.935Z,47.83
2023-01-21T08:57:46.721Z,54.05
2023-01-21T09:00:14.239Z,53.20
2023-01-21T09:02:40.908Z,45.92
2023-01-21T09:05:07.495Z,48.03
2023-01-21T09:07:33.812Z,45.80
2023-01-21T09:10:00.193Z,47.55
2023-01-21T09:12:26.583Z,45.20
2023-01-21T09:14:52.917Z,45.97
2023-01-21T09:17:19.316Z,45.42
2023-01-21T09:19:45.750Z,45.03
2023-01-21T09:22:13.766Z,45.65
2023-01-21T09:24:40.130Z,44.08
2023-01-21T09:27:06.914Z,48.08
2023-01-21T09:29:33.778Z,39.28
2023-01-21T09:32:00.311Z,36.60
2023-01-21T09:34:26.725Z,46.70
2023-01-21T09:36:53.086Z,38.33
2023-01-21T09:39:19.519Z,41.42
2023-01-21T09:41:49.552Z,47.17
2023-01-21T09:44:34.276Z,43.65
2023-01-21T09:47:03.925Z,40.10
2023-01-21T09:49:36.632Z,62.40
2023-01-21T09:52:02.973Z,63.25
2023-01-21T09:54:31.009Z,67.43
2023-01-21T09:57:07.900Z,69.07
2023-01-21T09:59:40.371Z,70.07
2023-01-21T10:02:14.690Z,43.47
2023-01-21T10:04:48.096Z,45.47
2023-01-21T10:07:15.594Z,51.53
2023-01-21T10:09:44.823Z,56.35
2023-01-21T10:12:11.164Z,58.90
2023-01-21T10:14:46.850Z,51.97
2023-01-21T10:17:15.764Z,52.90
2023-01-21T10:19:45.475Z,54.67
2023-01-21T10:22:17.337Z,63.63
2023-01-21T10:24:47.420Z,58.05
2023-01-21T10:27:19.179Z,47.13
2023-01-21T10:29:47.543Z,42.20
2023-01-21T10:32:16.095Z,50.28
2023-01-21T10:34:47.375Z,59.95
2023-01-21T10:37:13.662Z,41.53
2023-01-21T10:39:55.427Z,47.17
2023-01-21T10:42:36.964Z,45.80
2023-01-21T10:45:21.313Z,43.55
2023-01-21T10:48:02.776Z,39.28
2023-01-21T10:50:43.686Z,46.08
2023-01-21T10:53:19.279Z,53.58
2023-01-21T10:56:00.957Z,31.48
2023-01-21T10:58:39.500Z,35.58
2023-01-21T11:01:07.822Z,38.50
2023-01-21T11:03:38.878Z,35.35
2023-01-21T11:06:08.445Z,35.30
2023-01-21T11:08:34.958Z,29.67
2023-01-21T11:11:02.017Z,32.65
2023-01-21T11:13:28.646Z,31.90
2023-01-21T11:15:57.654Z,35.58
2023-01-21T11:18:37.313Z,32.90
2023-01-21T11:21:09.772Z,35.05
2023-01-21T11:23:39.285Z,31.73
2023-01-21T11:26:09.419Z,39.63
2023-01-21T11:28:36.598Z,34.42
2023-01-21T11:31:24.792Z,33.97
2023-01-21T11:33:52.686Z,34.90
2023-01-21T11:36:20.451Z,32.85
2023-01-21T11:38:48.759Z,33.42
2023-01-21T11:41:17.244Z,30.45
2023-01-21T11:43:45.705Z,32.78
2023-01-21T11:46:21.415Z,32.40
2023-01-21T11:48:48.017Z,43.72
2023-01-21T11:51:15.004Z,41.38
2023-01-21T11:53:41.598Z,41.30
2023-01-21T11:56:07.994Z,42.22
2023-01-21T11:58:40.134Z,46.25
2023-01-21T12:01:18.133Z,48.33
2023-01-21T12:03:49.801Z,43.17
2023-01-21T12:06:25.403Z,43.03
2023-01-21T12:08:53.385Z,39.45
2023-01-21T12:11:21.724Z,36.42
2023-01-21T12:13:53.947Z,41.03
2023-01-21T12:16:26.217Z,40.72
2023-01-21T12:18:58.813Z,38.70
2023-01-21T12:21:37.552Z,33.75
2023-01-21T12:24:27.494Z,39.20
2023-01-21T12:27:02.642Z,31.00
2023-01-21T12:29:38.241Z,35.92
2023-01-21T12:32:23.815Z,37.25
2023-01-21T12:37:22.389Z,30.63
2023-01-21T12:39:49.805Z,30.98
2023-01-21T12:42:40.909Z,37.95
2023-01-21T12:45:12.953Z,42.00
2023-01-21T12:47:46.133Z,39.95
2023-01-21T12:50:23.772Z,35.58
2023-01-21T12:53:02.547Z,38.25
2023-01-21T12:55:35.433Z,56.85
2023-01-21T12:58:04.884Z,40.72
2023-01-21T13:00:32.657Z,51.85
2023-01-21T13:03:08.272Z,30.08
2023-01-21T13:05:50.069Z,41.28
2023-01-21T13:08:30.149Z,34.38
2023-01-21T13:10:59.841Z,31.98
2023-01-21T13:13:32.075Z,30.60
2023-01-21T13:16:00.240Z,35.42
2023-01-21T13:18:30.486Z,32.97
2023-01-21T13:21:00.656Z,34.30
2023-01-21T13:23:32.382Z,36.05
2023-01-21T13:25:58.736Z,35.75
2023-01-21T13:28:32.999Z,33.13
2023-01-21T13:31:08.627Z,28.52
2023-01-21T13:33:58.216Z,30.13
2023-01-21T13:36:33.763Z,36.60
2023-01-21T13:39:00.171Z,33.13
2023-01-21T13:41:35.901Z,33.15
2023-01-21T13:44:20.897Z,31.95
2023-01-21T13:47:07.893Z,27.13
2023-01-21T13:49:40.338Z,29.63
2023-01-21T13:52:17.495Z,27.50
2023-01-21T13:54:46.992Z,30.25
2023-01-21T13:57:22.647Z,27.92
2023-01-21T13:59:54.657Z,25.33
2023-01-21T14:02:21.038Z,28.90
2023-01-21T14:04:57.544Z,28.25
2023-01-21T14:07:29.865Z,31.20
2023-01-21T14:10:02.283Z,25.83
2023-01-21T14:12:53.081Z,30.08
2023-01-21T14:15:34.618Z,25.65
2023-01-21T14:18:05.267Z,30.17
2023-01-21T14:20:43.596Z,32.08
2023-01-21T14:23:34.603Z,36.15
2023-01-21T14:26:01.005Z,34.85
2023-01-21T14:28:50.073Z,27.40
2023-01-21T14:31:16.644Z,41.75
2023-01-21T14:33:46.749Z,53.85
2023-01-21T14:36:16.720Z,48.83
2023-01-21T14:39:21.964Z,42.65
2023-01-21T14:41:54.417Z,25.92
2023-01-21T14:44:35.851Z,33.53
2023-01-21T14:47:14.980Z,30.42
2023-01-21T14:49:45.940Z,29.75
2023-01-21T14:52:13.932Z,26.17
2023-01-21T14:54:43.377Z,27.77
2023-01-21T14:57:19.450Z,32.38
2023-01-21T14:59:46.429Z,32.70
2023-01-21T15:02:18.884Z,27.92
2023-01-21T15:04:52.114Z,30.50
2023-01-21T15:07:20.221Z,29.10
2023-01-21T15:09:51.488Z,31.33
2023-01-21T15:12:21.244Z,26.58
2023-01-21T15:14:47.870Z,31.67
2023-01-21T15:17:33.188Z,33.03
2023-01-21T15:20:19.516Z,31.00
2023-01-21T15:22:46.772Z,40.30
2023-01-21T15:25:20.869Z,33.00
2023-01-21T15:28:13.218Z,36.95
2023-01-21T15:30:57.544Z,32.92
2023-01-21T15:33:25.085Z,35.25
2023-01-21T15:35:53.159Z,38.42
2023-01-21T15:38:20.513Z,34.88
2023-01-21T15:40:46.839Z,34.83
2023-01-21T15:43:23.310Z,35.22
2023-01-21T15:45:55.473Z,38.22
2023-01-21T15:48:41.185Z,32.13
2023-01-21T15:51:18.046Z,36.25
2023-01-21T15:54:21.355Z,32.20
2023-01-21T15:56:57.317Z,33.10
2023-01-21T15:59:35.977Z,35.47
2023-01-21T16:02:02.266Z,32.38
2023-01-21T16:04:35.327Z,33.05
2023-01-21T16:07:01.862Z,31.52
2023-01-21T16:09:35.880Z,34.85
2023-01-21T16:12:08.807Z,31.92
2023-01-21T16:14:35.204Z,42.63
2023-01-21T16:17:07.294Z,37.92
2023-01-21T16:19:37.163Z,41.75
2023-01-21T16:22:07.535Z,44.45
2023-01-21T16:24:37.118Z,39.15
2023-01-21T16:27:16.509Z,33.40
2023-01-21T16:29:43.065Z,36.35
2023-01-21T16:32:15.916Z,37.97
2023-01-21T16:34:43.055Z,37.20
2023-01-21T16:37:13.616Z,41.25
2023-01-21T16:39:41.321Z,39.63
2023-01-21T16:42:20.970Z,36.35
2023-01-21T16:44:47.404Z,41.03
2023-01-21T16:47:20.341Z,36.78
2023-01-21T16:49:46.720Z,36.45
2023-01-21T16:52:19.940Z,32.70
2023-01-21T16:54:53.493Z,31.33
2023-01-21T16:57:23.330Z,34.80
2023-01-21T16:59:49.781Z,53.78
2023-01-21T17:02:28.616Z,31.02
2023-01-21T17:04:57.068Z,29.33
2023-01-21T17:07:29.707Z,29.73
2023-01-21T17:10:06.820Z,26.65
2023-01-21T17:12:36.161Z,27.90
2023-01-21T17:15:08.068Z,27.20
2023-01-21T17:17:36.096Z,23.45
2023-01-21T17:20:02.654Z,24.65
2023-01-21T17:22:30.985Z,41.95
2023-01-21T17:25:16.946Z,45.10
2023-01-21T17:27:51.770Z,33.75
2023-01-21T17:30:38.589Z,30.67
2023-01-21T17:33:05.124Z,17.05
2023-01-21T17:35:33.542Z,21.25
2023-01-21T17:38:01.322Z,17.25
2023-01-21T17:40:27.754Z,17.55
2023-01-21T17:42:54.714Z,11.77
2023-01-21T17:45:43.955Z,10.55
2023-01-21T17:48:20.349Z,13.35
2023-01-21T17:53:33.671Z,9.90
2023-01-21T17:56:09.941Z,12.52
2023-01-21T17:59:26.481Z,13.90
2023-01-21T18:01:57.785Z,12.15
2023-01-21T18:04:24.316Z,13.85
2023-01-21T18:06:52.488Z,11.30
2023-01-21T18:09:28.199Z,12.45
2023-01-21T18:11:58.395Z,13.02
2023-01-21T18:14:29.013Z,11.00
2023-01-21T18:16:59.153Z,14.10
2023-01-21T18:19:34.073Z,11.70
2023-01-21T18:22:01.425Z,17.95
2023-01-21T18:24:28.152Z,13.52
2023-01-21T18:26:56.522Z,20.08
2023-01-21T18:29:23.087Z,10.68
2023-01-21T18:31:54.362Z,9.77
2023-01-21T18:34:26.192Z,10.63
2023-01-21T18:36:53.013Z,13.30
2023-01-21T18:39:20.467Z,14.48
2023-01-21T18:41:47.317Z,17.13
2023-01-21T18:44:14.257Z,9.30
2023-01-21T18:46:45.531Z,13.55
2023-01-21T18:49:12.003Z,21.17
2023-01-21T18:51:38.411Z,10.98
2023-01-21T18:54:04.940Z,13.30
2023-01-21T18:56:31.322Z,17.15
2023-01-21T18:58:57.733Z,20.15
2023-01-21T19:01:24.345Z,13.77
2023-01-21T19:03:52.381Z,27.05
2023-01-21T19:06:18.820Z,12.18
2023-01-21T19:08:46.039Z,16.00
2023-01-21T19:11:13.946Z,8.90
2023-01-21T19:13:40.495Z,14.75
2023-01-21T19:16:12.319Z,9.90
2023-01-21T19:18:38.716Z,10.73
2023-01-21T19:21:05.320Z,11.32
2023-01-21T19:23:31.666Z,9.35
2023-01-21T19:25:58.463Z,11.65
2023-01-21T19:28:25.072Z,9.98
2023-01-21T19:30:55.357Z,11.82
2023-01-21T19:33:22.513Z,7.30
2023-01-21T19:35:49.135Z,8.23
2023-01-21T19:38:19.232Z,7.00
2023-01-21T19:40:48.437Z,8.20
2023-01-21T19:43:17.015Z,11.02
2023-01-21T19:45:44.075Z,9.35
2023-01-21T19:48:12.086Z,11.18
2023-01-21T19:50:38.573Z,10.95
2023-01-21T19:53:06.051Z,9.75
2023-01-21T19:55:34.273Z,7.97
2023-01-21T19:58:01.906Z,4.53
2023-01-21T20:00:30.532Z,5.82
2023-01-21T20:02:57.015Z,12.93
2023-01-21T20:05:23.870Z,7.97
2023-01-21T20:07:50.799Z,10.93
2023-01-21T20:10:17.350Z,7.68
2023-01-21T20:12:44.189Z,7.15
2023-01-21T20:15:14.294Z,6.57
2023-01-21T20:17:42.498Z,7.07
2023-01-21T20:20:15.474Z,5.53
2023-01-21T20:22:42.234Z,6.25
2023-01-21T20:25:09.982Z,6.95
2023-01-21T20:27:36.319Z,7.03
2023-01-21T20:30:15.278Z,7.45
2023-01-21T20:32:43.319Z,6.70
2023-01-21T20:35:10.080Z,6.40
2023-01-21T20:37:36.674Z,8.20
2023-01-21T20:40:03.077Z,7.45
2023-01-21T20:45:00.813Z,6.82
2023-01-21T20:47:38.112Z,6.88
2023-01-21T20:50:24.778Z,6.65
2023-01-21T20:52:52.612Z,6.13
2023-01-21T20:55:21.246Z,7.28
2023-01-21T20:57:47.935Z,5.82
2023-01-21T21:00:16.105Z,6.65
2023-01-21T21:02:42.543Z,5.78
2023-01-21T21:05:09.296Z,6.25
2023-01-21T21:07:35.970Z,6.10
2023-01-21T21:10:02.390Z,6.43
2023-01-21T21:12:28.834Z,6.50
2023-01-21T21:14:55.269Z,7.40
2023-01-21T21:17:21.730Z,7.10
2023-01-21T21:19:48.218Z,7.38
2023-01-21T21:22:16.247Z,7.47
2023-01-21T21:24:43.400Z,8.10
2023-01-21T21:27:12.523Z,6.05
2023-01-21T21:29:38.975Z,6.47
2023-01-21T21:32:07.116Z,6.70
2023-01-21T21:34:34.803Z,6.72
2023-01-21T21:37:01.169Z,5.63
2023-01-21T21:39:27.726Z,7.20
2023-01-21T21:42:15.095Z,7.70
2023-01-21T21:44:43.029Z,6.32
2023-01-21T21:47:28.504Z,7.68
2023-01-21T21:49:54.983Z,8.48
2023-01-21T21:52:21.552Z,8.30
2023-01-21T21:54:48.051Z,7.80
2023-01-21T21:57:14.603Z,8.55
2023-01-21T21:59:42.458Z,9.32
2023-01-21T22:02:12.411Z,6.30
2023-01-21T22:04:39.225Z,6.88
2023-01-21T22:07:05.756Z,7.03
2023-01-21T22:09:34.041Z,6.93
2023-01-21T22:12:01.278Z,7.28
2023-01-21T22:14:27.688Z,8.27
2023-01-21T22:16:54.185Z,8.18
2023-01-21T22:19:20.589Z,7.22
2023-01-21T22:21:47.027Z,8.57
2023-01-21T22:24:13.548Z,7.70
2023-01-21T22:26:39.876Z,6.47
2023-01-21T22:29:06.391Z,7.05
2023-01-21T22:31:33.322Z,7.75
2023-01-21T22:34:00.331Z,8.98
2023-01-21T22:36:28.142Z,8.07
2023-01-21T22:38:54.632Z,8.00
2023-01-21T22:41:21.722Z,8.63
2023-01-21T22:43:48.550Z,7.70
2023-01-21T22:46:16.080Z,8.07
2023-01-21T22:48:42.604Z,7.40
2023-01-21T22:51:12.465Z,7.20
2023-01-21T22:53:43.837Z,7.45
2023-01-21T22:56:11.194Z,7.25
2023-01-21T22:58:37.838Z,7.35
2023-01-21T23:01:04.605Z,10.23
2023-01-21T23:03:31.443Z,7.82
2023-01-21T23:06:05.534Z,6.65
2023-01-21T23:08:31.961Z,7.85
2023-01-21T23:11:02.306Z,8.60
2023-01-21T23:13:28.835Z,7.30
2023-01-21T23:15:55.367Z,8.88
2023-01-21T23:18:24.904Z,9.63
2023-01-21T23:20:51.310Z,10.43
2023-01-21T23:23:17.711Z,9.77
2023-01-21T23:25:45.571Z,9.23
2023-01-21T23:28:12.423Z,11.18
2023-01-21T23:30:38.857Z,10.38
2023-01-21T23:33:05.244Z,9.43
2023-01-21T23:35:34.074Z,10.00
2023-01-21T23:38:00.855Z,9.13
2023-01-21T23:40:27.268Z,9.82
2023-01-21T23:42:53.661Z,8.85
2023-01-21T23:45:20.103Z,9.25
2023-01-21T23:47:47.563Z,8.85
2023-01-21T23:50:17.095Z,10.45
2023-01-21T23:52:43.630Z,10.82
2023-01-21T23:55:10.869Z,10.75
2023-01-21T23:57:37.285Z,8.98
